createdAt,value
2023-12-30T00:00:42.126Z,1.33
2023-12-30T00:03:09.276Z,2.15
2023-12-30T00:05:36.381Z,1.15
2023-12-30T00:08:03.727Z,2.15
2023-12-30T00:10:32.227Z,1.30
2023-12-30T00:13:00.534Z,2.13
2023-12-30T00:15:27.855Z,1.35
2023-12-30T00:17:55.049Z,2.92
2023-12-30T00:20:22.238Z,1.08
2023-12-30T00:22:49.473Z,1.80
2023-12-30T00:25:17.628Z,4.53
2023-12-30T00:27:44.842Z,1.65
2023-12-30T00:30:14.209Z,1.70
2023-12-30T00:32:42.114Z,2.80
2023-12-30T00:35:09.924Z,1.85
2023-12-30T00:40:04.375Z,1.33
2023-12-30T00:42:31.456Z,2.25
2023-12-30T00:44:58.736Z,1.15
2023-12-30T00:47:26.364Z,5.68
2023-12-30T00:49:53.803Z,2.78
2023-12-30T00:52:21.932Z,2.05
2023-12-30T00:54:51.288Z,3.47
2023-12-30T00:57:18.886Z,2.67
2023-12-30T00:59:46.033Z,4.15
2023-12-30T01:02:13.711Z,2.35
2023-12-30T01:04:40.868Z,1.63
2023-12-30T01:07:08.051Z,3.08
2023-12-30T01:09:35.394Z,7.80
2023-12-30T01:12:02.737Z,1.27
2023-12-30T01:14:30.899Z,1.00
2023-12-30T01:16:57.978Z,1.67
2023-12-30T01:19:26.144Z,1.25
2023-12-30T01:21:53.845Z,1.92
2023-12-30T01:24:20.969Z,1.00
2023-12-30T01:26:48.045Z,6.60
2023-12-30T01:29:15.127Z,0.90
2023-12-30T01:31:42.412Z,2.75
2023-12-30T01:34:10.078Z,1.20
2023-12-30T01:36:37.231Z,1.00
2023-12-30T01:39:04.811Z,1.42
2023-12-30T01:41:32.799Z,1.58
2023-12-30T01:43:59.886Z,2.85
2023-12-30T01:46:27.507Z,0.60
2023-12-30T01:48:54.868Z,1.17
2023-12-30T01:51:25.218Z,0.60
2023-12-30T01:53:56.498Z,2.60
2023-12-30T01:56:26.058Z,3.35
2023-12-30T01:58:53.856Z,1.40
2023-12-30T02:01:27.780Z,0.70
2023-12-30T02:03:54.976Z,0.95
2023-12-30T02:06:22.385Z,0.82
2023-12-30T02:08:49.770Z,0.93
2023-12-30T02:11:17.297Z,4.90
2023-12-30T02:13:45.489Z,1.60
2023-12-30T02:16:13.069Z,0.75
2023-12-30T02:18:40.320Z,0.60
2023-12-30T02:21:07.937Z,0.47
2023-12-30T02:28:30.209Z,1.33
2023-12-30T02:30:57.571Z,0.60
2023-12-30T02:33:25.233Z,1.90
2023-12-30T02:35:53.043Z,4.43
2023-12-30T02:38:20.130Z,1.02
2023-12-30T02:40:47.570Z,0.68
2023-12-30T02:43:14.883Z,1.60
2023-12-30T02:45:41.998Z,1.60
2023-12-30T02:50:37.122Z,0.80
2023-12-30T02:53:04.455Z,3.25
2023-12-30T02:55:31.640Z,1.20
2023-12-30T02:57:59.237Z,2.28
2023-12-30T03:00:26.331Z,2.42
2023-12-30T03:02:54.420Z,1.23
2023-12-30T03:05:21.770Z,2.08
2023-12-30T03:07:48.972Z,1.00
2023-12-30T03:10:16.542Z,1.00
2023-12-30T03:12:43.741Z,1.13
2023-12-30T03:15:10.787Z,1.15
2023-12-30T03:17:37.990Z,3.05
2023-12-30T03:20:06.065Z,1.08
2023-12-30T03:25:01.281Z,1.48
2023-12-30T03:27:28.415Z,2.00
2023-12-30T03:29:55.494Z,3.92
2023-12-30T03:32:22.598Z,2.65
2023-12-30T03:34:50.803Z,2.17
2023-12-30T03:37:18.043Z,2.78
2023-12-30T03:39:45.169Z,1.65
2023-12-30T03:42:12.276Z,3.50
2023-12-30T03:44:39.443Z,2.47
2023-12-30T03:47:06.549Z,1.23
2023-12-30T03:49:35.181Z,4.68
2023-12-30T03:52:02.486Z,2.53
2023-12-30T03:54:29.609Z,2.55
2023-12-30T03:56:56.856Z,2.20
2023-12-30T03:59:24.075Z,2.28
2023-12-30T04:01:51.829Z,3.22
2023-12-30T04:04:19.023Z,1.55
2023-12-30T04:06:46.123Z,0.60
2023-12-30T04:09:13.188Z,4.10
2023-12-30T04:11:40.360Z,2.22
2023-12-30T04:14:07.536Z,1.33
2023-12-30T04:16:34.753Z,2.75
2023-12-30T04:19:01.996Z,3.42
2023-12-30T04:21:29.229Z,3.35
2023-12-30T04:23:56.307Z,4.80
2023-12-30T04:26:23.572Z,5.35
2023-12-30T04:28:50.760Z,2.88
2023-12-30T04:31:18.445Z,3.75
2023-12-30T04:33:45.637Z,3.92
2023-12-30T04:36:12.997Z,2.13
2023-12-30T04:38:43.580Z,2.53
2023-12-30T04:41:11.975Z,2.78
2023-12-30T04:43:39.193Z,3.58
2023-12-30T04:46:06.484Z,1.00
2023-12-30T04:48:33.829Z,0.75
2023-12-30T04:51:01.027Z,2.55
2023-12-30T04:53:28.159Z,2.35
2023-12-30T04:55:55.257Z,1.30
2023-12-30T04:58:22.496Z,1.75
2023-12-30T05:00:49.867Z,3.05
2023-12-30T05:03:17.992Z,1.25
2023-12-30T05:05:45.260Z,3.08
2023-12-30T05:08:12.452Z,1.50
2023-12-30T05:10:39.668Z,1.33
2023-12-30T05:13:07.492Z,2.53
2023-12-30T05:15:34.823Z,1.10
2023-12-30T05:18:02.304Z,1.35
2023-12-30T05:20:29.534Z,5.65
2023-12-30T05:23:00.960Z,0.80
2023-12-30T05:25:28.197Z,1.50
2023-12-30T05:27:55.539Z,0.45
2023-12-30T05:30:23.262Z,2.65
2023-12-30T05:32:50.384Z,1.60
2023-12-30T05:35:18.248Z,0.57
2023-12-30T05:40:12.746Z,1.08
2023-12-30T05:42:39.831Z,1.02
2023-12-30T05:45:07.604Z,2.60
2023-12-30T05:47:34.767Z,2.80
2023-12-30T05:50:02.165Z,5.57
2023-12-30T05:52:29.852Z,1.98
2023-12-30T05:54:57.145Z,2.42
2023-12-30T05:57:24.400Z,4.32
2023-12-30T05:59:51.482Z,2.72
2023-12-30T06:02:18.577Z,1.02
2023-12-30T06:04:45.700Z,2.28
2023-12-30T06:07:13.338Z,5.75
2023-12-30T06:09:40.451Z,2.25
2023-12-30T06:12:07.736Z,6.25
2023-12-30T06:14:36.265Z,3.78
2023-12-30T06:17:04.292Z,1.92
2023-12-30T06:19:33.933Z,4.18
2023-12-30T06:22:01.409Z,1.58
2023-12-30T06:24:28.532Z,2.10
2023-12-30T06:26:55.659Z,0.95
2023-12-30T06:29:22.873Z,2.08
2023-12-30T06:31:51.083Z,3.80
2023-12-30T06:34:18.471Z,5.10
2023-12-30T06:36:46.547Z,3.13
2023-12-30T06:39:14.447Z,9.85
2023-12-30T06:44:09.596Z,1.40
2023-12-30T06:46:36.837Z,5.45
2023-12-30T06:49:04.082Z,2.53
2023-12-30T06:51:31.219Z,3.42
2023-12-30T06:53:58.289Z,2.30
2023-12-30T06:56:25.488Z,0.85
2023-12-30T06:58:53.205Z,3.53
2023-12-30T07:01:25.358Z,1.25
2023-12-30T07:03:53.000Z,1.98
2023-12-30T07:06:20.120Z,3.60
2023-12-30T07:08:47.184Z,1.65
2023-12-30T07:11:14.288Z,1.90
2023-12-30T07:13:41.506Z,3.20
2023-12-30T07:16:08.756Z,2.88
2023-12-30T07:18:36.138Z,1.05
2023-12-30T07:21:04.128Z,5.13
2023-12-30T07:23:31.202Z,6.00
2023-12-30T07:25:58.486Z,3.92
2023-12-30T07:28:25.599Z,0.77
2023-12-30T07:30:52.804Z,2.95
2023-12-30T07:33:20.048Z,2.22
2023-12-30T07:35:47.215Z,2.72
2023-12-30T07:38:14.506Z,3.33
2023-12-30T07:40:41.686Z,4.38
2023-12-30T07:43:09.709Z,8.77
2023-12-30T07:45:36.896Z,2.88
2023-12-30T07:48:04.353Z,2.53
2023-12-30T07:50:31.543Z,4.13
2023-12-30T07:52:58.664Z,1.13
2023-12-30T07:55:25.883Z,2.45
2023-12-30T07:57:53.337Z,4.50
2023-12-30T08:00:20.589Z,5.85
2023-12-30T08:02:47.725Z,2.95
2023-12-30T08:05:14.891Z,1.00
2023-12-30T08:07:42.104Z,4.90
2023-12-30T08:10:09.384Z,3.80
2023-12-30T08:12:37.851Z,2.95
2023-12-30T08:15:05.901Z,4.70
2023-12-30T08:20:00.140Z,3.05
2023-12-30T08:22:27.323Z,3.92
2023-12-30T08:24:55.293Z,3.00
2023-12-30T08:27:22.575Z,3.38
2023-12-30T08:29:49.862Z,2.65
2023-12-30T08:32:16.928Z,5.70
2023-12-30T08:34:44.053Z,2.90
2023-12-30T08:37:11.296Z,1.77
2023-12-30T08:39:39.153Z,3.28
2023-12-30T08:47:01.336Z,2.55
2023-12-30T08:49:28.549Z,5.00
2023-12-30T08:51:55.782Z,1.58
2023-12-30T08:54:22.964Z,1.30
2023-12-30T08:56:51.954Z,3.80
2023-12-30T08:59:19.348Z,8.23
2023-12-30T09:01:46.512Z,4.03
2023-12-30T09:04:13.861Z,3.58
2023-12-30T09:06:40.990Z,4.35
2023-12-30T09:09:08.076Z,5.38
2023-12-30T09:11:39.105Z,7.45
2023-12-30T09:14:06.603Z,6.03
2023-12-30T09:16:34.412Z,1.63
2023-12-30T09:19:02.081Z,4.40
2023-12-30T09:21:30.767Z,6.70
2023-12-30T09:23:58.401Z,3.45
2023-12-30T09:26:26.512Z,4.80
2023-12-30T09:28:54.159Z,2.60
2023-12-30T09:31:21.629Z,9.10
2023-12-30T09:33:50.312Z,3.70
2023-12-30T09:36:18.778Z,6.90
2023-12-30T09:38:45.885Z,3.30
2023-12-30T09:41:14.602Z,3.55
2023-12-30T09:43:43.266Z,5.70
2023-12-30T09:46:10.889Z,3.92
2023-12-30T09:51:08.523Z,2.53
2023-12-30T09:56:03.814Z,1.15
2023-12-30T09:58:32.640Z,1.23
2023-12-30T10:01:00.024Z,2.20
2023-12-30T10:03:29.631Z,4.20
2023-12-30T10:06:00.729Z,1.85
2023-12-30T10:08:31.124Z,2.35
2023-12-30T10:10:58.584Z,8.50
2023-12-30T10:13:28.630Z,2.22
2023-12-30T10:15:59.931Z,2.58
2023-12-30T10:18:27.385Z,2.30
2023-12-30T10:20:55.063Z,5.05
2023-12-30T10:23:22.749Z,3.60
2023-12-30T10:25:49.934Z,1.52
2023-12-30T10:28:17.713Z,5.18
2023-12-30T10:33:14.009Z,4.63
2023-12-30T10:35:45.467Z,4.57
2023-12-30T10:38:14.889Z,4.15
2023-12-30T10:40:42.410Z,5.20
2023-12-30T10:43:10.522Z,4.82
2023-12-30T10:45:38.518Z,5.53
2023-12-30T10:50:42.496Z,4.35
2023-12-30T10:53:17.113Z,11.57
2023-12-30T10:55:52.094Z,3.33
2023-12-30T10:58:21.478Z,5.70
2023-12-30T11:00:54.238Z,7.97
2023-12-30T11:03:22.771Z,2.83
2023-12-30T11:06:28.746Z,2.65
2023-12-30T11:09:09.855Z,5.72
2023-12-30T11:11:53.847Z,2.83
2023-12-30T11:14:21.696Z,4.75
2023-12-30T11:16:52.281Z,2.55
2023-12-30T11:19:27.092Z,2.15
2023-12-30T11:21:55.969Z,0.80
2023-12-30T11:24:23.738Z,2.92
2023-12-30T11:26:53.946Z,3.38
2023-12-30T11:29:29.359Z,1.13
2023-12-30T11:31:59.985Z,5.03
2023-12-30T11:34:27.975Z,2.55
2023-12-30T11:36:58.963Z,1.88
2023-12-30T11:39:33.140Z,3.20
2023-12-30T11:42:01.472Z,0.73
2023-12-30T11:44:29.091Z,4.57
2023-12-30T11:46:57.817Z,7.80
2023-12-30T11:49:26.496Z,1.50
2023-12-30T11:52:05.318Z,6.18
2023-12-30T11:54:37.148Z,2.55
2023-12-30T11:57:07.814Z,2.60
2023-12-30T11:59:34.998Z,1.50
2023-12-30T12:02:15.809Z,2.78
2023-12-30T12:04:43.449Z,3.33
2023-12-30T12:07:12.133Z,3.28
2023-12-30T12:09:41.587Z,1.70
2023-12-30T12:12:08.990Z,6.13
2023-12-30T12:17:07.116Z,3.25
2023-12-30T12:19:37.038Z,0.77
2023-12-30T12:22:04.356Z,4.88
2023-12-30T12:24:32.900Z,3.78
2023-12-30T12:27:00.025Z,3.50
2023-12-30T12:29:27.158Z,3.28
2023-12-30T12:31:54.723Z,1.33
2023-12-30T12:34:26.863Z,1.98
2023-12-30T12:36:54.906Z,3.08
2023-12-30T12:41:49.643Z,4.10
2023-12-30T12:44:16.880Z,6.03
2023-12-30T12:46:44.111Z,2.92
2023-12-30T12:49:11.372Z,1.58
2023-12-30T12:51:40.633Z,2.22
2023-12-30T12:54:07.970Z,0.82
2023-12-30T12:56:35.473Z,4.00
2023-12-30T12:59:02.531Z,1.58
2023-12-30T13:01:30.083Z,1.10
2023-12-30T13:03:59.319Z,1.33
2023-12-30T13:06:26.657Z,1.65
2023-12-30T13:08:57.122Z,5.68
2023-12-30T13:11:28.356Z,4.50
2023-12-30T13:13:56.311Z,4.68
2023-12-30T13:16:24.922Z,3.58
2023-12-30T13:18:52.239Z,10.32
2023-12-30T13:21:19.626Z,4.35
2023-12-30T13:23:50.552Z,3.95
2023-12-30T13:26:19.719Z,4.25
2023-12-30T13:28:47.382Z,8.25
2023-12-30T13:31:18.984Z,4.25
2023-12-30T13:33:46.527Z,6.93
2023-12-30T13:36:14.089Z,5.15
2023-12-30T13:38:45.024Z,11.82
2023-12-30T13:41:12.415Z,7.55
2023-12-30T13:43:39.578Z,5.93
2023-12-30T13:46:26.657Z,4.03
2023-12-30T13:51:45.666Z,4.53
2023-12-30T13:54:13.236Z,5.32
2023-12-30T13:56:43.576Z,7.85
2023-12-30T13:59:13.191Z,7.70
2023-12-30T14:01:40.643Z,4.38
2023-12-30T14:04:08.852Z,6.85
2023-12-30T14:06:39.322Z,7.00
2023-12-30T14:09:32.701Z,7.80
2023-12-30T14:12:06.848Z,7.68
2023-12-30T14:14:46.122Z,5.90
2023-12-30T14:17:15.170Z,5.00
2023-12-30T14:19:43.418Z,10.80
2023-12-30T14:22:10.999Z,7.00
2023-12-30T14:24:38.427Z,4.72
2023-12-30T14:27:05.617Z,6.43
2023-12-30T14:29:32.750Z,5.57
2023-12-30T14:31:59.862Z,10.27
2023-12-30T14:34:27.327Z,7.38
2023-12-30T14:36:54.539Z,3.35
2023-12-30T14:39:22.941Z,7.68
2023-12-30T14:41:50.156Z,7.90
2023-12-30T14:44:17.678Z,5.38
2023-12-30T14:46:45.255Z,2.55
2023-12-30T14:49:13.572Z,4.65
2023-12-30T14:51:40.795Z,4.70
2023-12-30T14:54:07.858Z,2.85
2023-12-30T14:56:35.438Z,4.97
2023-12-30T14:59:02.865Z,6.13
2023-12-30T15:01:30.136Z,4.97
2023-12-30T15:04:00.837Z,2.28
2023-12-30T15:06:28.663Z,8.38
2023-12-30T15:08:57.511Z,7.78
2023-12-30T15:11:24.607Z,5.63
2023-12-30T15:13:53.016Z,12.48
2023-12-30T15:16:21.381Z,8.73
2023-12-30T15:18:48.647Z,3.40
2023-12-30T15:21:16.543Z,3.80
2023-12-30T15:23:43.695Z,3.67
2023-12-30T15:26:11.090Z,6.47
2023-12-30T15:28:38.501Z,3.58
2023-12-30T15:31:05.912Z,5.57
2023-12-30T15:33:33.346Z,10.80
2023-12-30T15:36:03.836Z,7.43
2023-12-30T15:38:32.836Z,3.50
2023-12-30T15:41:00.676Z,3.30
2023-12-30T15:45:57.265Z,6.13
2023-12-30T15:48:25.569Z,3.45
2023-12-30T15:50:52.766Z,7.30
2023-12-30T15:53:20.538Z,7.50
2023-12-30T15:55:48.624Z,11.23
2023-12-30T15:58:15.851Z,3.53
2023-12-30T16:00:43.054Z,9.45
2023-12-30T16:03:12.837Z,7.75
2023-12-30T16:05:41.627Z,7.32
2023-12-30T16:08:10.770Z,10.35
2023-12-30T16:10:38.137Z,6.07
2023-12-30T16:13:08.250Z,7.40
2023-12-30T16:15:37.821Z,8.38
2023-12-30T16:18:06.152Z,4.25
2023-12-30T16:20:33.465Z,9.73
2023-12-30T16:23:05.073Z,30.23
2023-12-30T16:25:32.728Z,27.45
2023-12-30T16:27:59.990Z,8.80
2023-12-30T16:30:27.178Z,6.30
2023-12-30T16:32:54.785Z,14.25
2023-12-30T16:35:22.117Z,13.20
2023-12-30T16:37:50.572Z,8.35
2023-12-30T16:40:17.773Z,10.38
2023-12-30T16:42:44.966Z,5.95
2023-12-30T16:45:12.114Z,13.57
2023-12-30T16:47:41.365Z,10.20
2023-12-30T16:50:08.767Z,8.40
2023-12-30T16:52:37.061Z,8.48
2023-12-30T16:55:04.693Z,7.75
2023-12-30T16:57:31.817Z,6.68
2023-12-30T16:59:58.880Z,10.55
2023-12-30T17:02:26.467Z,12.40
2023-12-30T17:04:53.619Z,5.22
2023-12-30T17:07:20.714Z,7.72
2023-12-30T17:09:47.782Z,7.88
2023-12-30T17:12:14.851Z,7.68
2023-12-30T17:14:43.212Z,3.70
2023-12-30T17:17:10.342Z,3.80
2023-12-30T17:19:37.699Z,6.57
2023-12-30T17:22:04.944Z,9.10
2023-12-30T17:24:32.076Z,8.55
2023-12-30T17:27:02.413Z,5.25
2023-12-30T17:29:30.631Z,8.27
2023-12-30T17:31:58.720Z,6.88
2023-12-30T17:34:26.220Z,5.05
2023-12-30T17:36:53.309Z,6.82
2023-12-30T17:39:20.371Z,4.72
2023-12-30T17:41:47.573Z,6.68
2023-12-30T17:44:15.219Z,6.18
2023-12-30T17:46:42.319Z,7.20
2023-12-30T17:49:10.077Z,8.48
2023-12-30T17:54:05.304Z,9.43
2023-12-30T17:56:32.348Z,5.55
2023-12-30T17:58:59.534Z,9.50
2023-12-30T18:01:26.779Z,4.63
2023-12-30T18:03:53.911Z,16.42
2023-12-30T18:06:21.385Z,8.82
2023-12-30T18:08:48.464Z,5.22
2023-12-30T18:11:15.604Z,11.02
2023-12-30T18:13:43.105Z,5.93
2023-12-30T18:16:10.471Z,5.82
2023-12-30T18:18:37.878Z,14.32
2023-12-30T18:21:05.142Z,9.35
2023-12-30T18:23:32.271Z,5.65
2023-12-30T18:25:59.341Z,5.72
2023-12-30T18:28:26.430Z,9.77
2023-12-30T18:30:54.305Z,5.88
2023-12-30T18:35:48.452Z,14.60
2023-12-30T18:38:15.504Z,11.68
2023-12-30T18:40:44.287Z,9.75
2023-12-30T18:43:12.783Z,12.00
2023-12-30T18:45:41.527Z,9.13
2023-12-30T18:48:09.950Z,11.00
2023-12-30T18:50:37.929Z,8.45
2023-12-30T18:53:05.226Z,15.50
2023-12-30T18:55:33.932Z,16.23
2023-12-30T18:58:01.241Z,14.80
2023-12-30T19:00:28.515Z,16.38
2023-12-30T19:02:56.116Z,15.65
2023-12-30T19:05:23.302Z,17.10
2023-12-30T19:07:50.483Z,21.40
2023-12-30T19:10:17.755Z,16.13
2023-12-30T19:12:45.850Z,11.98
2023-12-30T19:15:13.009Z,13.88
2023-12-30T19:17:40.561Z,18.65
2023-12-30T19:20:08.437Z,20.23
2023-12-30T19:25:03.782Z,14.30
2023-12-30T19:27:31.411Z,18.23
2023-12-30T19:29:58.585Z,15.20
2023-12-30T19:32:25.666Z,15.57
2023-12-30T19:34:52.753Z,14.10
2023-12-30T19:37:21.058Z,11.27
2023-12-30T19:39:48.200Z,13.73
2023-12-30T19:42:15.462Z,9.50
2023-12-30T19:44:42.576Z,11.23
2023-12-30T19:47:09.722Z,21.05
2023-12-30T19:49:36.871Z,9.55
2023-12-30T19:52:04.140Z,13.82
2023-12-30T19:54:31.278Z,8.52
2023-12-30T19:56:58.793Z,10.55
2023-12-30T19:59:26.466Z,13.13
2023-12-30T20:01:53.604Z,11.48
2023-12-30T20:04:20.978Z,11.57
2023-12-30T20:06:50.112Z,13.60
2023-12-30T20:09:17.179Z,10.20
2023-12-30T20:11:46.009Z,18.08
2023-12-30T20:14:16.303Z,13.98
2023-12-30T20:16:43.713Z,14.07
2023-12-30T20:19:12.382Z,11.68
2023-12-30T20:21:41.303Z,11.63
2023-12-30T20:24:09.996Z,16.75
2023-12-30T20:26:37.490Z,11.82
2023-12-30T20:29:04.577Z,15.32
2023-12-30T20:31:31.811Z,13.18
2023-12-30T20:33:59.343Z,11.13
2023-12-30T20:36:27.122Z,13.23
2023-12-30T20:38:55.465Z,7.25
2023-12-30T20:41:22.556Z,15.68
2023-12-30T20:43:49.706Z,10.00
2023-12-30T20:46:16.886Z,10.98
2023-12-30T20:48:44.914Z,8.77
2023-12-30T20:51:12.318Z,13.00
2023-12-30T20:53:39.669Z,10.95
2023-12-30T20:56:06.922Z,11.60
2023-12-30T20:58:34.107Z,6.15
2023-12-30T21:01:01.244Z,7.85
2023-12-30T21:03:30.485Z,9.23
2023-12-30T21:05:58.465Z,12.32
2023-12-30T21:08:25.540Z,10.52
2023-12-30T21:10:52.780Z,13.73
2023-12-30T21:13:20.945Z,11.88
2023-12-30T21:15:48.273Z,14.43
2023-12-30T21:18:15.922Z,12.88
2023-12-30T21:20:43.082Z,12.13
2023-12-30T21:23:10.198Z,14.68
2023-12-30T21:25:37.331Z,8.77
2023-12-30T21:28:05.715Z,13.27
2023-12-30T21:30:33.220Z,7.00
2023-12-30T21:33:00.935Z,13.40
2023-12-30T21:37:55.131Z,6.18
2023-12-30T21:40:23.187Z,8.93
2023-12-30T21:42:50.252Z,12.95
2023-12-30T21:45:18.394Z,11.45
2023-12-30T21:47:45.780Z,11.70
2023-12-30T21:50:13.476Z,9.45
2023-12-30T21:52:43.654Z,9.75
2023-12-30T21:55:11.134Z,11.38
2023-12-30T21:57:39.775Z,10.55
2023-12-30T22:00:07.651Z,9.95
2023-12-30T22:02:35.285Z,11.07
2023-12-30T22:05:02.478Z,6.25
2023-12-30T22:07:29.693Z,7.15
2023-12-30T22:09:57.178Z,9.73
2023-12-30T22:12:24.237Z,8.30
2023-12-30T22:14:51.865Z,8.07
2023-12-30T22:17:18.947Z,7.10
2023-12-30T22:19:48.355Z,9.13
2023-12-30T22:22:15.536Z,12.77
2023-12-30T22:24:42.736Z,9.43
2023-12-30T22:27:09.846Z,6.68
2023-12-30T22:29:36.996Z,3.80
2023-12-30T22:32:04.396Z,6.97
2023-12-30T22:34:31.741Z,8.85
2023-12-30T22:36:59.193Z,10.23
2023-12-30T22:39:26.305Z,5.88
2023-12-30T22:41:54.196Z,5.63
2023-12-30T22:44:22.746Z,9.57
2023-12-30T22:46:50.019Z,6.57
2023-12-30T22:49:17.350Z,11.13
2023-12-30T22:51:48.740Z,7.55
2023-12-30T22:54:16.744Z,11.23
2023-12-30T22:56:44.872Z,9.25
2023-12-30T22:59:19.165Z,7.28
2023-12-30T23:01:46.388Z,5.13
2023-12-30T23:04:14.124Z,9.48
2023-12-30T23:09:08.500Z,8.27
2023-12-30T23:11:35.654Z,9.82
2023-12-30T23:14:02.832Z,7.25
2023-12-30T23:16:30.025Z,12.27
2023-12-30T23:18:57.841Z,6.65
2023-12-30T23:21:32.433Z,9.88
2023-12-30T23:23:59.838Z,7.15
2023-12-30T23:26:27.019Z,12.40
2023-12-30T23:28:54.886Z,7.80
2023-12-30T23:33:49.202Z,9.82
2023-12-30T23:36:16.442Z,5.95
2023-12-30T23:38:43.606Z,15.10
2023-12-30T23:41:10.703Z,12.20
2023-12-30T23:43:38.067Z,8.38
2023-12-30T23:46:05.129Z,10.63
2023-12-30T23:48:32.267Z,12.07
2023-12-30T23:50:59.337Z,6.90
2023-12-30T23:53:26.479Z,8.98
2023-12-30T23:55:53.719Z,8.35
2023-12-30T23:58:20.886Z,11.68
